Time;durP1;ratioP1;P1;durP2;ratioP2;P2;SDS_P1;SDS_P2;PMS_P1;PMS_P2;Temp;Humidity;BMP_temperature;BMP_pressure;BME280_temperature;BME280_humidity;BME280_pressure;Samples;Min_cycle;Max_cycle;Signal;HPM_P1;HPM_P2
2022/03/02 00:01:20;;;;;;;15.80;10.60;;;;;;;;;;4954215;28;20059;-72
2022/03/02 00:03:47;;;;;;;21.50;9.98;;;;;;;;;;4954334;29;20485;-72
2022/03/02 00:06:14;;;;;;;19.02;10.10;;;;;;;;;;4954295;28;20565;-71
2022/03/02 00:08:40;;;;;;;18.83;11.20;;;;;;;;;;4954419;29;20055;-71
2022/03/02 00:11:07;;;;;;;19.77;12.27;;;;;;;;;;4954145;29;20055;-71
2022/03/02 00:13:33;;;;;;;21.65;12.90;;;;;;;;;;4954419;29;20106;-71
2022/03/02 00:16:00;;;;;;;17.83;11.07;;;;;;;;;;4954419;29;20470;-71
2022/03/02 00:18:27;;;;;;;17.02;11.57;;;;;;;;;;4954206;29;20059;-71
2022/03/02 00:20:53;;;;;;;17.05;9.82;;;;;;;;;;4954428;29;20086;-70
2022/03/02 00:23:20;;;;;;;16.33;10.25;;;;;;;;;;4954163;28;20098;-72
2022/03/02 00:25:46;;;;;;;16.35;10.95;;;;;;;;;;4953024;29;20498;-71
2022/03/02 00:28:17;;;;;;;16.08;10.82;;;;;;;;;;4954348;28;20057;-71
2022/03/02 00:30:44;;;;;;;20.40;11.48;;;;;;;;;;4953934;29;20113;-71
2022/03/02 00:33:11;;;;;;;16.40;10.93;;;;;;;;;;4953985;29;20051;-69
2022/03/02 00:35:37;;;;;;;15.75;9.98;;;;;;;;;;4953935;29;20051;-69
2022/03/02 00:38:06;;;;;;;20.27;11.93;;;;;;;;;;4954177;29;20114;-69
2022/03/02 00:40:33;;;;;;;16.85;10.82;;;;;;;;;;4953728;28;20110;-69
2022/03/02 00:42:59;;;;;;;15.93;10.43;;;;;;;;;;4953760;28;20466;-68
2022/03/02 00:45:26;;;;;;;15.77;10.60;;;;;;;;;;4953747;29;20082;-70
2022/03/02 00:47:53;;;;;;;16.23;10.38;;;;;;;;;;4953982;29;20055;-69
2022/03/02 00:50:20;;;;;;;17.48;11.38;;;;;;;;;;4953867;29;20146;-70
2022/03/02 00:52:47;;;;;;;17.52;10.85;;;;;;;;;;4953336;28;20098;-69
2022/03/02 00:55:14;;;;;;;15.38;10.50;;;;;;;;;;4952427;29;20102;-70
2022/03/02 00:57:41;;;;;;;16.08;10.27;;;;;;;;;;4954105;29;20051;-70
2022/03/02 01:00:08;;;;;;;16.35;10.68;;;;;;;;;;4953677;28;20462;-69
2022/03/02 01:02:34;;;;;;;15.98;10.63;;;;;;;;;;4953810;29;20454;-69
2022/03/02 01:05:01;;;;;;;15.82;10.73;;;;;;;;;;4953828;29;20047;-69
2022/03/02 01:07:27;;;;;;;16.92;10.55;;;;;;;;;;4953808;29;20466;-69
2022/03/02 01:09:54;;;;;;;18.70;10.20;;;;;;;;;;4953967;29;20115;-68
2022/03/02 01:12:21;;;;;;;19.05;10.60;;;;;;;;;;4953223;29;20054;-70
2022/03/02 01:14:47;;;;;;;16.52;10.60;;;;;;;;;;4953571;29;20516;-69
2022/03/02 01:17:14;;;;;;;15.55;9.75;;;;;;;;;;4953551;29;20055;-69
2022/03/02 01:19:41;;;;;;;17.30;10.85;;;;;;;;;;4954510;29;20051;-70
2022/03/02 01:22:08;;;;;;;17.88;10.50;;;;;;;;;;4953579;29;20165;-69
2022/03/02 01:24:34;;;;;;;18.73;11.15;;;;;;;;;;4953573;29;20047;-70
2022/03/02 01:27:01;;;;;;;19.75;10.82;;;;;;;;;;4953515;29;20055;-69
2022/03/02 01:29:30;;;;;;;19.73;10.90;;;;;;;;;;4953627;28;20056;-70
2022/03/02 01:31:57;;;;;;;16.65;9.73;;;;;;;;;;4953330;28;20109;-69
2022/03/02 01:34:24;;;;;;;16.52;10.38;;;;;;;;;;4953343;28;20106;-70
2022/03/02 01:36:51;;;;;;;19.40;11.40;;;;;;;;;;4953451;29;20058;-69
2022/03/02 01:39:17;;;;;;;18.38;11.60;;;;;;;;;;4953359;29;20055;-70
2022/03/02 01:41:44;;;;;;;17.38;11.02;;;;;;;;;;4952892;28;20055;-69
2022/03/02 01:44:10;;;;;;;17.38;11.93;;;;;;;;;;4953361;29;20048;-69
2022/03/02 01:46:37;;;;;;;16.10;10.43;;;;;;;;;;4953269;29;20081;-69
2022/03/02 01:49:04;;;;;;;14.75;10.02;;;;;;;;;;4968172;28;20052;-69
2022/03/02 01:51:32;;;;;;;14.82;10.45;;;;;;;;;;4952952;29;20063;-69
2022/03/02 01:53:58;;;;;;;16.95;10.30;;;;;;;;;;4953230;29;20179;-69
2022/03/02 01:56:25;;;;;;;16.42;10.45;;;;;;;;;;4953072;29;20059;-69
2022/03/02 01:58:51;;;;;;;16.38;10.50;;;;;;;;;;4952318;29;20047;-68
2022/03/02 02:01:18;;;;;;;14.70;10.18;;;;;;;;;;4951934;29;20056;-69
2022/03/02 02:03:45;;;;;;;15.95;10.82;;;;;;;;;;4952824;28;20051;-69
2022/03/02 02:06:13;;;;;;;16.77;10.18;;;;;;;;;;4956349;28;20052;-69
2022/03/02 02:08:41;;;;;;;15.80;9.65;;;;;;;;;;4956698;29;20462;-69
2022/03/02 02:11:10;;;;;;;14.82;9.38;;;;;;;;;;4956842;28;20055;-68
2022/03/02 02:13:37;;;;;;;14.55;10.15;;;;;;;;;;4956642;28;20051;-70
2022/03/02 02:16:04;;;;;;;17.05;10.65;;;;;;;;;;4956634;29;20051;-72
2022/03/02 02:18:31;;;;;;;16.40;10.85;;;;;;;;;;4956591;29;20077;-70
2022/03/02 02:21:08;;;;;;;16.15;11.55;;;;;;;;;;4956370;29;20051;-70
2022/03/02 02:23:36;;;;;;;17.20;10.85;;;;;;;;;;4956100;29;20050;-70
2022/03/02 02:26:03;;;;;;;15.93;10.35;;;;;;;;;;4956418;29;20518;-70
2022/03/02 02:28:30;;;;;;;14.88;10.70;;;;;;;;;;4970785;28;20047;-70
2022/03/02 02:30:58;;;;;;;18.55;11.15;;;;;;;;;;4956381;29;20059;-70
2022/03/02 02:33:26;;;;;;;18.70;10.43;;;;;;;;;;4956027;29;20059;-69
2022/03/02 02:35:52;;;;;;;15.95;10.45;;;;;;;;;;4956121;28;20102;-70
2022/03/02 02:38:20;;;;;;;18.10;11.25;;;;;;;;;;4970902;28;20055;-70
2022/03/02 02:40:48;;;;;;;16.70;11.50;;;;;;;;;;4955777;29;20499;-69
2022/03/02 02:43:16;;;;;;;18.58;11.20;;;;;;;;;;4955756;29;20051;-69
2022/03/02 02:45:43;;;;;;;16.45;10.77;;;;;;;;;;4955872;29;20495;-69
2022/03/02 02:48:09;;;;;;;17.88;11.20;;;;;;;;;;4955803;29;20494;-70
2022/03/02 02:50:36;;;;;;;19.08;11.60;;;;;;;;;;4955404;29;20087;-70
2022/03/02 02:53:06;;;;;;;17.13;11.05;;;;;;;;;;4955911;29;20051;-69
2022/03/02 02:55:34;;;;;;;18.33;10.98;;;;;;;;;;4955974;29;20192;-69
2022/03/02 02:58:01;;;;;;;17.08;11.25;;;;;;;;;;4955899;29;20055;-69
2022/03/02 03:00:30;;;;;;;19.13;11.15;;;;;;;;;;4955481;29;20051;-70
2022/03/02 03:02:58;;;;;;;19.20;11.82;;;;;;;;;;4936595;29;20059;-70
2022/03/02 03:05:26;;;;;;;18.52;12.02;;;;;;;;;;4936707;29;20130;-70
2022/03/02 03:07:53;;;;;;;18.80;10.73;;;;;;;;;;4936649;29;20110;-70
2022/03/02 03:10:20;;;;;;;18.10;11.75;;;;;;;;;;4936277;29;20060;-70
2022/03/02 03:12:47;;;;;;;15.35;10.55;;;;;;;;;;4954302;29;20109;-70
2022/03/02 03:15:16;;;;;;;21.13;12.02;;;;;;;;;;4955358;28;20051;-70
2022/03/02 03:17:42;;;;;;;20.08;12.15;;;;;;;;;;4954528;28;20577;-70
2022/03/02 03:20:10;;;;;;;18.98;11.45;;;;;;;;;;4955323;28;20051;-70
2022/03/02 03:22:37;;;;;;;19.30;11.50;;;;;;;;;;4955114;28;20102;-71
2022/03/02 03:25:04;;;;;;;20.13;12.13;;;;;;;;;;4955152;29;20059;-70
2022/03/02 03:27:31;;;;;;;19.67;11.60;;;;;;;;;;4954568;28;20055;-71
2022/03/02 03:29:58;;;;;;;19.27;11.95;;;;;;;;;;4955011;29;20430;-68
2022/03/02 03:32:26;;;;;;;19.38;12.60;;;;;;;;;;4955313;29;20051;-70
2022/03/02 03:34:53;;;;;;;16.85;11.43;;;;;;;;;;4954977;29;20051;-70
2022/03/02 03:37:20;;;;;;;20.88;11.90;;;;;;;;;;4955149;29;20055;-70
2022/03/02 03:39:46;;;;;;;21.00;12.20;;;;;;;;;;4969478;28;20055;-70
2022/03/02 03:42:16;;;;;;;16.50;11.13;;;;;;;;;;4954549;29;20485;-71
2022/03/02 03:44:43;;;;;;;19.83;11.63;;;;;;;;;;4954873;28;20055;-71
2022/03/02 03:47:10;;;;;;;18.67;11.38;;;;;;;;;;4954922;29;20109;-69
2022/03/02 03:49:37;;;;;;;18.80;11.80;;;;;;;;;;4955005;28;20522;-71
2022/03/02 03:52:04;;;;;;;22.20;12.50;;;;;;;;;;4954494;28;20499;-70
2022/03/02 03:54:30;;;;;;;18.60;11.68;;;;;;;;;;4954753;29;20105;-70
2022/03/02 03:56:57;;;;;;;19.98;11.95;;;;;;;;;;4954944;28;20176;-70
2022/03/02 03:59:24;;;;;;;22.80;12.63;;;;;;;;;;4954206;28;20517;-70
2022/03/02 04:01:50;;;;;;;18.65;11.40;;;;;;;;;;4954407;28;20051;-70
2022/03/02 04:04:17;;;;;;;20.05;12.45;;;;;;;;;;4954175;28;20051;-70
2022/03/02 04:06:44;;;;;;;18.75;11.77;;;;;;;;;;4935113;29;20111;-71
2022/03/02 04:09:10;;;;;;;17.52;11.63;;;;;;;;;;4953899;29;20526;-71
2022/03/02 04:11:37;;;;;;;15.60;10.95;;;;;;;;;;4954018;29;20110;-71
2022/03/02 04:14:04;;;;;;;19.35;11.48;;;;;;;;;;4954253;29;20051;-70
2022/03/02 04:16:30;;;;;;;21.88;13.02;;;;;;;;;;4954129;28;20055;-70
2022/03/02 04:18:57;;;;;;;19.45;12.60;;;;;;;;;;4954273;29;20144;-70
2022/03/02 04:21:24;;;;;;;20.08;11.57;;;;;;;;;;4953838;29;20514;-70
2022/03/02 04:23:50;;;;;;;17.80;11.27;;;;;;;;;;4954234;29;20055;-70
2022/03/02 04:26:17;;;;;;;17.88;11.48;;;;;;;;;;4954178;29;20135;-70
2022/03/02 04:28:44;;;;;;;19.77;12.40;;;;;;;;;;4953911;28;20051;-69
2022/03/02 04:31:10;;;;;;;17.80;11.70;;;;;;;;;;4954063;28;20051;-70
2022/03/02 04:33:37;;;;;;;19.05;11.02;;;;;;;;;;4954051;29;20102;-70
2022/03/02 04:36:04;;;;;;;15.63;11.00;;;;;;;;;;4953831;29;20051;-70
2022/03/02 04:38:31;;;;;;;18.20;11.18;;;;;;;;;;4953803;29;20474;-70
2022/03/02 04:40:58;;;;;;;21.33;11.90;;;;;;;;;;4957082;29;20051;-70
2022/03/02 04:43:24;;;;;;;23.65;11.90;;;;;;;;;;4953838;29;20059;-71
2022/03/02 04:45:51;;;;;;;17.17;11.45;;;;;;;;;;4953928;29;20082;-71
2022/03/02 04:48:18;;;;;;;18.98;11.57;;;;;;;;;;4953704;29;20106;-70
2022/03/02 04:50:47;;;;;;;19.98;11.82;;;;;;;;;;4953451;29;20502;-71
2022/03/02 04:53:16;;;;;;;22.80;12.93;;;;;;;;;;4953440;29;20515;-70
2022/03/02 04:55:44;;;;;;;18.15;11.15;;;;;;;;;;4955666;28;20055;-71
2022/03/02 04:58:11;;;;;;;22.33;12.85;;;;;;;;;;4956031;29;20114;-71
2022/03/02 05:00:38;;;;;;;19.80;12.63;;;;;;;;;;4955387;28;20053;-70
2022/03/02 05:03:05;;;;;;;18.50;11.15;;;;;;;;;;4953694;29;20418;-70
2022/03/02 05:05:37;;;;;;;19.58;12.30;;;;;;;;;;4953978;29;20078;-70
2022/03/02 05:08:04;;;;;;;18.63;12.32;;;;;;;;;;4954325;29;20209;-70
2022/03/02 05:10:31;;;;;;;18.85;12.65;;;;;;;;;;4952846;29;20083;-70
2022/03/02 05:12:58;;;;;;;18.27;11.82;;;;;;;;;;4953782;29;20058;-69
2022/03/02 05:15:25;;;;;;;20.15;12.30;;;;;;;;;;4953659;29;20055;-70
2022/03/02 05:17:52;;;;;;;18.20;12.23;;;;;;;;;;4953695;29;20466;-71
2022/03/02 05:20:19;;;;;;;21.50;12.57;;;;;;;;;;4953551;28;20055;-70
2022/03/02 05:22:47;;;;;;;18.55;11.02;;;;;;;;;;4952480;29;20073;-72
2022/03/02 05:25:13;;;;;;;21.58;12.02;;;;;;;;;;4953391;29;20043;-70
2022/03/02 05:27:40;;;;;;;18.80;11.70;;;;;;;;;;4954033;29;20188;-70
2022/03/02 05:30:08;;;;;;;19.52;11.95;;;;;;;;;;4953156;29;20059;-70
2022/03/02 05:32:35;;;;;;;15.57;10.93;;;;;;;;;;4953713;28;20047;-70
2022/03/02 05:35:02;;;;;;;14.98;10.55;;;;;;;;;;4953497;28;20047;-70
2022/03/02 05:37:28;;;;;;;18.10;11.30;;;;;;;;;;4953646;29;20420;-71
2022/03/02 05:39:55;;;;;;;19.55;10.73;;;;;;;;;;4955194;28;20051;-70
2022/03/02 05:42:22;;;;;;;20.67;11.40;;;;;;;;;;4956955;29;20577;-70
2022/03/02 05:44:49;;;;;;;14.90;10.05;;;;;;;;;;4957303;29;20051;-71
2022/03/02 05:47:16;;;;;;;15.25;10.52;;;;;;;;;;4957207;29;20055;-71
2022/03/02 05:49:43;;;;;;;16.35;10.88;;;;;;;;;;4957206;29;20079;-70
2022/03/02 05:52:10;;;;;;;17.58;11.40;;;;;;;;;;4957374;29;20051;-71
2022/03/02 05:54:36;;;;;;;15.25;9.98;;;;;;;;;;4954537;29;20051;-71
2022/03/02 05:57:03;;;;;;;21.60;12.02;;;;;;;;;;4954235;28;20055;-71
2022/03/02 05:59:33;;;;;;;23.17;12.77;;;;;;;;;;4957114;28;20498;-71
2022/03/02 06:02:00;;;;;;;17.15;10.50;;;;;;;;;;4957333;29;20051;-71
2022/03/02 06:04:32;;;;;;;18.48;9.23;;;;;;;;;;4951541;28;20482;-71
2022/03/02 06:06:58;;;;;;;15.45;10.40;;;;;;;;;;4948243;29;20051;-71
2022/03/02 06:09:25;;;;;;;16.52;9.68;;;;;;;;;;4957371;28;20055;-71
2022/03/02 06:11:52;;;;;;;12.43;9.07;;;;;;;;;;4956909;28;20055;-71
2022/03/02 06:14:19;;;;;;;15.55;9.20;;;;;;;;;;4956907;28;20051;-71
2022/03/02 06:16:46;;;;;;;16.17;9.93;;;;;;;;;;4949253;28;20094;-70
2022/03/02 06:19:13;;;;;;;13.60;9.23;;;;;;;;;;4944734;29;20047;-70
2022/03/02 06:21:40;;;;;;;14.60;9.88;;;;;;;;;;4947013;28;20125;-71
2022/03/02 06:24:08;;;;;;;15.90;9.45;;;;;;;;;;4937378;29;20051;-71
2022/03/02 06:26:35;;;;;;;15.65;9.60;;;;;;;;;;4941808;29;20047;-71
2022/03/02 06:29:02;;;;;;;16.67;10.52;;;;;;;;;;4942131;29;20066;-70
2022/03/02 06:31:29;;;;;;;14.32;10.07;;;;;;;;;;4955764;28;20110;-70
2022/03/02 06:33:55;;;;;;;17.20;9.85;;;;;;;;;;4956639;28;20055;-71
2022/03/02 06:36:22;;;;;;;13.45;9.10;;;;;;;;;;4956591;28;20047;-70
2022/03/02 06:38:49;;;;;;;17.92;10.25;;;;;;;;;;4955998;28;20097;-71
2022/03/02 06:41:53;;;;;;;14.95;9.68;;;;;;;;;;4953286;28;20059;-69
2022/03/02 06:44:27;;;;;;;13.82;10.23;;;;;;;;;;4933707;29;20173;-69
2022/03/02 06:47:01;;;;;;;14.52;9.75;;;;;;;;;;4934912;29;20514;-68
2022/03/02 06:50:05;;;;;;;19.08;10.15;;;;;;;;;;4939008;29;20510;-68
2022/03/02 06:52:44;;;;;;;15.02;9.70;;;;;;;;;;4942599;29;20047;-70
2022/03/02 06:55:15;;;;;;;15.23;9.60;;;;;;;;;;4953672;28;20051;-68
2022/03/02 06:57:46;;;;;;;22.40;10.73;;;;;;;;;;4954026;28;20188;-68
2022/03/02 07:00:16;;;;;;;13.85;9.05;;;;;;;;;;4968257;28;20051;-68
2022/03/02 07:02:48;;;;;;;17.92;9.88;;;;;;;;;;4953496;29;20525;-68
2022/03/02 07:05:16;;;;;;;15.45;9.43;;;;;;;;;;4953528;28;20525;-68
2022/03/02 07:07:42;;;;;;;18.25;10.40;;;;;;;;;;4953224;28;20054;-69
2022/03/02 07:10:09;;;;;;;23.08;10.32;;;;;;;;;;4953635;29;20063;-68
2022/03/02 07:12:37;;;;;;;13.10;9.73;;;;;;;;;;4953661;28;20047;-67
2022/03/02 07:15:05;;;;;;;13.63;9.23;;;;;;;;;;4953913;28;20116;-70
2022/03/02 07:17:32;;;;;;;15.88;9.38;;;;;;;;;;4953882;28;20526;-68
2022/03/02 07:20:00;;;;;;;16.05;9.52;;;;;;;;;;4953092;28;20118;-67
2022/03/02 07:22:31;;;;;;;16.38;9.45;;;;;;;;;;4953448;28;20457;-69
2022/03/02 07:25:00;;;;;;;15.55;8.95;;;;;;;;;;4953156;28;20050;-68
2022/03/02 07:27:30;;;;;;;14.85;8.75;;;;;;;;;;4952313;29;20083;-68
2022/03/02 07:29:56;;;;;;;18.92;9.52;;;;;;;;;;4953420;28;20047;-68
2022/03/02 07:32:28;;;;;;;12.57;8.88;;;;;;;;;;4952899;28;20082;-68
2022/03/02 07:34:57;;;;;;;19.25;10.63;;;;;;;;;;4952511;28;20130;-67
2022/03/02 07:37:24;;;;;;;12.23;8.15;;;;;;;;;;4953397;28;20051;-68
2022/03/02 07:39:51;;;;;;;14.48;9.07;;;;;;;;;;4951909;29;20058;-68
2022/03/02 07:42:19;;;;;;;13.13;9.02;;;;;;;;;;4953135;28;20230;-67
2022/03/02 07:44:49;;;;;;;14.93;8.48;;;;;;;;;;4953125;28;20054;-67
2022/03/02 07:47:17;;;;;;;12.35;8.35;;;;;;;;;;4952689;28;20509;-68
2022/03/02 07:49:45;;;;;;;18.17;9.85;;;;;;;;;;4952881;28;20114;-67
2022/03/02 07:52:14;;;;;;;12.55;9.52;;;;;;;;;;4952459;28;20051;-67
2022/03/02 07:54:41;;;;;;;12.93;8.32;;;;;;;;;;4952532;28;20055;-69
2022/03/02 07:57:11;;;;;;;17.13;8.30;;;;;;;;;;4952973;28;20066;-68
2022/03/02 07:59:44;;;;;;;12.07;8.05;;;;;;;;;;4952348;28;20047;-67
2022/03/02 08:02:12;;;;;;;17.73;9.52;;;;;;;;;;4952572;28;20048;-67
2022/03/02 08:04:41;;;;;;;18.75;8.68;;;;;;;;;;4952492;28;20581;-68
2022/03/02 08:07:10;;;;;;;12.82;8.60;;;;;;;;;;4952544;28;20114;-68
2022/03/02 08:09:38;;;;;;;15.23;9.07;;;;;;;;;;4953126;28;20055;-70
2022/03/02 08:12:07;;;;;;;15.48;9.93;;;;;;;;;;4950596;29;20299;-67
2022/03/02 08:14:34;;;;;;;17.88;9.07;;;;;;;;;;4952695;28;20055;-67
2022/03/02 08:17:00;;;;;;;15.45;8.98;;;;;;;;;;4952537;28;20058;-67
2022/03/02 08:19:27;;;;;;;16.85;9.02;;;;;;;;;;4952156;28;20055;-66
2022/03/02 08:21:58;;;;;;;13.40;8.73;;;;;;;;;;4951479;29;20522;-68
2022/03/02 08:24:29;;;;;;;23.33;9.48;;;;;;;;;;4952160;28;20054;-65
2022/03/02 08:26:59;;;;;;;15.70;9.95;;;;;;;;;;4951700;28;20469;-68
2022/03/02 08:29:30;;;;;;;15.52;9.30;;;;;;;;;;4951976;28;20121;-67
2022/03/02 08:32:02;;;;;;;16.50;9.43;;;;;;;;;;4951759;28;20110;-65
2022/03/02 08:34:29;;;;;;;17.67;9.07;;;;;;;;;;4952396;28;20059;-66
2022/03/02 08:36:56;;;;;;;14.15;9.65;;;;;;;;;;4951763;28;20487;-66
2022/03/02 08:39:23;;;;;;;17.88;8.93;;;;;;;;;;4951476;28;20098;-68
2022/03/02 08:41:51;;;;;;;15.00;8.90;;;;;;;;;;4951890;28;20050;-70
2022/03/02 08:44:19;;;;;;;14.60;7.95;;;;;;;;;;4951887;28;20055;-68
2022/03/02 08:46:46;;;;;;;11.40;8.43;;;;;;;;;;4951648;28;20047;-66
2022/03/02 08:49:17;;;;;;;12.57;8.52;;;;;;;;;;4952399;28;20051;-67
2022/03/02 08:51:44;;;;;;;12.77;7.95;;;;;;;;;;4951159;28;20058;-70
2022/03/02 08:54:13;;;;;;;12.43;8.20;;;;;;;;;;4952339;28;20047;-71
2022/03/02 08:56:40;;;;;;;11.68;8.27;;;;;;;;;;4952587;28;20126;-68
2022/03/02 08:59:08;;;;;;;13.60;8.57;;;;;;;;;;4953587;29;20062;-68
2022/03/02 09:01:40;;;;;;;12.13;8.25;;;;;;;;;;4936743;29;20055;-68
2022/03/02 09:04:07;;;;;;;12.88;7.97;;;;;;;;;;4953353;28;20066;-67
2022/03/02 09:06:35;;;;;;;15.07;8.75;;;;;;;;;;4952903;29;20095;-67
2022/03/02 09:09:03;;;;;;;14.27;8.45;;;;;;;;;;4953627;28;20114;-68
2022/03/02 09:11:30;;;;;;;16.73;9.27;;;;;;;;;;4952532;28;20102;-68
2022/03/02 09:13:57;;;;;;;12.15;8.25;;;;;;;;;;4953314;28;20051;-67
2022/03/02 09:16:23;;;;;;;16.73;9.35;;;;;;;;;;4957907;28;20125;-68
2022/03/02 09:18:50;;;;;;;11.85;8.27;;;;;;;;;;4957818;28;20130;-66
2022/03/02 09:21:16;;;;;;;14.05;8.85;;;;;;;;;;4957273;29;20102;-66
2022/03/02 09:23:43;;;;;;;16.08;9.50;;;;;;;;;;4956057;29;20055;-68
2022/03/02 09:26:13;;;;;;;15.82;8.68;;;;;;;;;;4956103;29;20466;-68
2022/03/02 09:28:42;;;;;;;14.60;9.35;;;;;;;;;;4957538;28;20106;-68
2022/03/02 09:31:11;;;;;;;12.52;8.57;;;;;;;;;;4957757;28;20055;-67
2022/03/02 09:33:38;;;;;;;11.93;8.98;;;;;;;;;;4957098;28;20502;-68
2022/03/02 09:36:09;;;;;;;14.75;9.13;;;;;;;;;;4957273;28;20051;-67
2022/03/02 09:38:37;;;;;;;15.73;8.63;;;;;;;;;;4957132;28;20055;-68
2022/03/02 09:41:06;;;;;;;20.67;9.25;;;;;;;;;;4957233;28;20107;-68
2022/03/02 09:43:35;;;;;;;14.88;9.77;;;;;;;;;;4956830;28;20051;-67
2022/03/02 09:46:06;;;;;;;11.68;9.10;;;;;;;;;;4957192;28;20043;-67
2022/03/02 09:48:41;;;;;;;14.05;9.35;;;;;;;;;;4956947;28;20051;-67
2022/03/02 09:51:08;;;;;;;13.82;9.75;;;;;;;;;;4955760;29;20051;-68
2022/03/02 09:53:35;;;;;;;12.65;8.65;;;;;;;;;;4957102;28;20120;-68
2022/03/02 09:56:04;;;;;;;13.27;9.15;;;;;;;;;;4957133;28;20109;-68
2022/03/02 09:58:31;;;;;;;12.50;8.85;;;;;;;;;;4956651;28;20548;-66
2022/03/02 10:00:59;;;;;;;16.33;10.25;;;;;;;;;;4940359;29;20051;-68
2022/03/02 10:03:31;;;;;;;14.27;9.82;;;;;;;;;;4956690;29;20102;-68
2022/03/02 10:05:58;;;;;;;15.73;9.05;;;;;;;;;;4940136;29;20502;-67
2022/03/02 10:08:24;;;;;;;14.80;10.02;;;;;;;;;;4939625;29;20106;-68
2022/03/02 10:10:52;;;;;;;16.92;10.18;;;;;;;;;;4971384;28;20562;-68
2022/03/02 10:13:19;;;;;;;14.18;9.38;;;;;;;;;;4971047;28;20561;-67
2022/03/02 10:15:46;;;;;;;14.38;10.05;;;;;;;;;;4956626;28;20055;-67
2022/03/02 10:18:13;;;;;;;13.75;9.40;;;;;;;;;;4956317;29;20569;-68
2022/03/02 10:20:49;;;;;;;15.77;9.73;;;;;;;;;;4956294;28;20055;-67
2022/03/02 10:23:34;;;;;;;14.90;10.05;;;;;;;;;;4956042;28;20522;-67
2022/03/02 10:26:03;;;;;;;13.38;9.40;;;;;;;;;;4955113;28;20102;-67
2022/03/02 10:28:29;;;;;;;13.32;9.25;;;;;;;;;;4955126;28;20110;-66
2022/03/02 10:31:13;;;;;;;13.52;9.68;;;;;;;;;;4954959;28;20106;-67
2022/03/02 10:33:45;;;;;;;17.45;9.45;;;;;;;;;;4955122;28;20090;-67
2022/03/02 10:36:12;;;;;;;13.15;9.32;;;;;;;;;;4954036;29;20052;-67
2022/03/02 10:39:10;;;;;;;17.05;9.52;;;;;;;;;;4955066;28;20533;-68
2022/03/02 10:41:39;;;;;;;11.30;8.02;;;;;;;;;;4954780;29;20130;-68
2022/03/02 10:44:15;;;;;;;14.43;9.13;;;;;;;;;;4955035;28;20543;-67
2022/03/02 10:46:46;;;;;;;13.05;7.57;;;;;;;;;;4954795;28;20129;-67
2022/03/02 10:49:18;;;;;;;12.18;8.10;;;;;;;;;;4953919;29;20098;-67
2022/03/02 10:51:45;;;;;;;12.18;7.65;;;;;;;;;;4954520;28;20431;-67
2022/03/02 10:54:15;;;;;;;12.30;8.23;;;;;;;;;;4953472;29;20051;-68
2022/03/02 10:56:42;;;;;;;13.70;9.77;;;;;;;;;;4937978;29;20109;-67
2022/03/02 10:59:16;;;;;;;13.25;8.93;;;;;;;;;;4937620;29;20055;-67
2022/03/02 11:01:49;;;;;;;12.38;8.27;;;;;;;;;;4954535;28;20059;-68
2022/03/02 11:04:18;;;;;;;11.00;8.70;;;;;;;;;;4954501;28;20090;-68
2022/03/02 11:06:45;;;;;;;14.48;8.25;;;;;;;;;;4954557;28;20047;-67
2022/03/02 11:09:34;;;;;;;13.35;9.05;;;;;;;;;;4954706;29;20142;-68
2022/03/02 11:12:01;;;;;;;11.48;8.00;;;;;;;;;;4954441;28;20047;-68
2022/03/02 11:14:28;;;;;;;12.05;7.95;;;;;;;;;;4953375;29;20054;-68
2022/03/02 11:17:14;;;;;;;11.30;9.20;;;;;;;;;;4954744;28;20110;-67
2022/03/02 11:19:45;;;;;;;13.70;9.63;;;;;;;;;;4954969;28;20078;-67
2022/03/02 11:22:20;;;;;;;13.13;9.23;;;;;;;;;;4914678;29;1121092;-67
2022/03/02 11:24:47;;;;;;;16.42;10.40;;;;;;;;;;4955303;28;20054;-68
2022/03/02 11:27:25;;;;;;;19.00;10.00;;;;;;;;;;4955266;29;20047;-67
2022/03/02 11:30:17;;;;;;;19.52;10.48;;;;;;;;;;4955431;28;20466;-67
2022/03/02 11:32:45;;;;;;;16.50;11.02;;;;;;;;;;4955081;29;20502;-67
2022/03/02 11:35:18;;;;;;;20.63;11.13;;;;;;;;;;4955293;29;20055;-67
2022/03/02 11:37:44;;;;;;;17.38;10.65;;;;;;;;;;4954410;28;20110;-68
2022/03/02 11:40:13;;;;;;;15.13;11.43;;;;;;;;;;4954770;29;20562;-67
2022/03/02 11:42:42;;;;;;;14.00;10.55;;;;;;;;;;4954906;29;20087;-68
2022/03/02 11:45:10;;;;;;;17.25;10.50;;;;;;;;;;4955274;29;20051;-68
2022/03/02 11:47:38;;;;;;;16.05;9.50;;;;;;;;;;4954862;29;20466;-68
2022/03/02 11:50:08;;;;;;;13.80;9.35;;;;;;;;;;4954701;28;20474;-68
2022/03/02 11:52:37;;;;;;;14.95;9.55;;;;;;;;;;4954700;28;20491;-68
2022/03/02 11:55:09;;;;;;;12.75;9.00;;;;;;;;;;4953572;29;20102;-67
2022/03/02 11:57:43;;;;;;;13.50;9.75;;;;;;;;;;4954727;28;20534;-67
2022/03/02 12:00:12;;;;;;;14.45;9.32;;;;;;;;;;4954578;28;20055;-67
2022/03/02 12:02:49;;;;;;;15.40;9.27;;;;;;;;;;4954404;28;20110;-68
2022/03/02 12:05:18;;;;;;;12.30;9.52;;;;;;;;;;4954896;28;20618;-68
2022/03/02 12:07:52;;;;;;;13.23;8.52;;;;;;;;;;4954446;28;20090;-68
2022/03/02 12:10:18;;;;;;;14.50;9.27;;;;;;;;;;4954243;28;20118;-68
2022/03/02 12:12:45;;;;;;;14.63;9.65;;;;;;;;;;4954366;29;20495;-67
2022/03/02 12:15:12;;;;;;;13.15;8.77;;;;;;;;;;4954326;29;20055;-67
2022/03/02 12:17:39;;;;;;;12.65;9.05;;;;;;;;;;4954528;28;20047;-67
2022/03/02 12:20:12;;;;;;;11.85;8.48;;;;;;;;;;4954272;28;20109;-68
2022/03/02 12:22:44;;;;;;;13.48;9.15;;;;;;;;;;4954100;28;20051;-68
2022/03/02 12:25:18;;;;;;;14.35;8.55;;;;;;;;;;4954097;28;20519;-68
2022/03/02 12:28:00;;;;;;;20.00;8.55;;;;;;;;;;4954665;28;20047;-68
2022/03/02 12:30:28;;;;;;;16.40;8.70;;;;;;;;;;4954102;28;20098;-68
2022/03/02 12:32:55;;;;;;;12.00;9.45;;;;;;;;;;4954129;28;20056;-67
2022/03/02 12:35:23;;;;;;;13.52;8.23;;;;;;;;;;4954089;28;20047;-67
2022/03/02 12:37:55;;;;;;;11.70;8.80;;;;;;;;;;4954051;28;20043;-67
2022/03/02 12:40:26;;;;;;;10.93;9.13;;;;;;;;;;4954001;28;20054;-68
2022/03/02 12:42:53;;;;;;;11.68;8.13;;;;;;;;;;4954012;28;20513;-67
2022/03/02 12:45:20;;;;;;;12.40;8.85;;;;;;;;;;4937090;29;20059;-67
2022/03/02 12:47:47;;;;;;;12.52;7.90;;;;;;;;;;4953884;28;20101;-67
2022/03/02 12:50:15;;;;;;;12.90;8.77;;;;;;;;;;4953647;28;20051;-67
2022/03/02 12:52:43;;;;;;;14.05;8.77;;;;;;;;;;4953714;28;20126;-68
2022/03/02 12:55:10;;;;;;;16.75;9.43;;;;;;;;;;4953985;28;20415;-67
2022/03/02 12:57:38;;;;;;;15.55;9.20;;;;;;;;;;4953805;28;20047;-67
2022/03/02 13:00:11;;;;;;;16.80;9.20;;;;;;;;;;4953897;28;20106;-68
2022/03/02 13:02:38;;;;;;;12.65;8.88;;;;;;;;;;4953625;28;20051;-68
2022/03/02 13:05:24;;;;;;;13.77;8.73;;;;;;;;;;4936729;29;20051;-67
2022/03/02 13:07:57;;;;;;;10.30;7.78;;;;;;;;;;4953633;29;20051;-68
2022/03/02 13:10:24;;;;;;;12.90;7.95;;;;;;;;;;4953636;29;20051;-66
2022/03/02 13:12:56;;;;;;;13.90;8.05;;;;;;;;;;4952574;29;20346;-68
2022/03/02 13:15:32;;;;;;;18.02;9.25;;;;;;;;;;4953536;29;20495;-68
2022/03/02 13:18:07;;;;;;;11.52;8.07;;;;;;;;;;4953921;29;20048;-68
2022/03/02 13:20:35;;;;;;;12.77;8.20;;;;;;;;;;4953642;28;20109;-68
2022/03/02 13:23:22;;;;;;;17.05;9.13;;;;;;;;;;4952158;29;20055;-68
2022/03/02 13:25:55;;;;;;;12.48;8.40;;;;;;;;;;4953929;28;20106;-68
2022/03/02 13:28:22;;;;;;;14.98;8.23;;;;;;;;;;4954182;29;20059;-67
2022/03/02 13:31:11;;;;;;;11.07;8.35;;;;;;;;;;4953398;28;20082;-67
2022/03/02 13:33:57;;;;;;;12.27;8.23;;;;;;;;;;4950223;28;20051;-68
2022/03/02 13:36:48;;;;;;;11.30;8.07;;;;;;;;;;4953818;29;20074;-67
2022/03/02 13:39:30;;;;;;;13.50;8.25;;;;;;;;;;4953736;28;20054;-67
2022/03/02 13:42:01;;;;;;;15.50;8.45;;;;;;;;;;4953526;28;20083;-68
2022/03/02 13:44:34;;;;;;;11.35;7.68;;;;;;;;;;4953392;28;20565;-68
2022/03/02 13:47:14;;;;;;;12.30;8.02;;;;;;;;;;4953800;28;20122;-67
2022/03/02 13:50:08;;;;;;;12.13;7.93;;;;;;;;;;4953625;28;20098;-67
2022/03/02 13:52:35;;;;;;;12.32;8.45;;;;;;;;;;4950542;28;20054;-67
2022/03/02 13:55:10;;;;;;;14.25;8.57;;;;;;;;;;4953254;29;20055;-67
2022/03/02 13:58:23;;;;;;;10.27;7.60;;;;;;;;;;4953846;29;20519;-67
2022/03/02 14:00:50;;;;;;;12.27;8.38;;;;;;;;;;4954401;28;20059;-67
2022/03/02 14:03:32;;;;;;;12.70;8.63;;;;;;;;;;4956796;28;20498;-67
2022/03/02 14:05:59;;;;;;;14.15;7.90;;;;;;;;;;4957042;28;20138;-67
2022/03/02 14:08:26;;;;;;;12.23;7.93;;;;;;;;;;4956684;28;20051;-68
2022/03/02 14:10:52;;;;;;;10.75;7.65;;;;;;;;;;4956745;28;20051;-68
2022/03/02 14:13:19;;;;;;;12.13;7.80;;;;;;;;;;4956748;28;20224;-67
2022/03/02 14:15:46;;;;;;;14.55;8.07;;;;;;;;;;4956733;28;20051;-68
2022/03/02 14:18:17;;;;;;;12.02;7.90;;;;;;;;;;4956499;29;20056;-67
2022/03/02 14:20:43;;;;;;;14.95;10.20;;;;;;;;;;4956858;28;20570;-67
2022/03/02 14:23:12;;;;;;;14.13;9.02;;;;;;;;;;4956204;29;20562;-67
2022/03/02 14:25:39;;;;;;;13.07;8.35;;;;;;;;;;4956617;28;20047;-67
2022/03/02 14:28:10;;;;;;;14.10;8.73;;;;;;;;;;4956349;28;20106;-67
2022/03/02 14:30:38;;;;;;;13.27;8.18;;;;;;;;;;4956077;28;20054;-67
2022/03/02 14:33:12;;;;;;;14.82;9.68;;;;;;;;;;4956306;28;20047;-67
2022/03/02 14:35:39;;;;;;;13.98;8.35;;;;;;;;;;4956300;28;20051;-67